B EKIBI BRIFING 03.01.2011

Views:
 
Category: Entertainment
     
 

Presentation Description

No description available.

Comments

Presentation Transcript

TRABZON BÖLGESEL TAHMİN VE UYARI MERKEZİSABAH BRİFİNGİ : 

TRABZON BÖLGESEL TAHMİN VE UYARI MERKEZİSABAH BRİFİNGİ 03-01-2011 B EKİBİ

YER KARTLARI : 

YER KARTLARI 03-01-2011

850 HPA : 

850 HPA

700 HPA : 

700 HPA

700 NEM ILERI 24 SAAT : 

700 NEM ILERI 24 SAAT

500 HPA : 

500 HPA

300 HPA : 

300 HPA

10 M Rüzgar : 

10 M Rüzgar

SAYISAL YAĞIŞ HARİTASI : 

SAYISAL YAĞIŞ HARİTASI

METEOGRAMLAR : 

METEOGRAMLAR TRABZON GİRESUN

RİZE ARTVİN : 

RİZE ARTVİN

GÜMÜŞHANE : 

GÜMÜŞHANE

UYDU GÖRÜNTÜLERİ : 

UYDU GÖRÜNTÜLERİ

GÜN İÇERİSİNDE BEKLENEN HAVA DURUMU : 

GÜN İÇERİSİNDE BEKLENEN HAVA DURUMU

UZUN VADE : 

UZUN VADE

TRABZON MEYDAN GÜNLÜK TAHMİN : 

TRABZON MEYDAN GÜNLÜK TAHMİN AZ BULUTLU, AKŞAM SAATLERİNDEN SONRA PARÇALI BULUTLU BEKLENMEKTEDİR. RUZGAR GÜNEY VE GÜNEYDOĞULU YONLERDEN ORTALAMA 07-12KT KUVVETINDE ESMESI BEKLENMEKTEDIR. Minimum sıcaklık: 5 derece oldu Maksimum sıcaklık : 14 derece beklenmektedir

BÖLGEMİZ MERKEZLERİNDE ÖLÇÜLEN YAĞIŞ MİKTARLARI : 

BÖLGEMİZ MERKEZLERİNDE ÖLÇÜLEN YAĞIŞ MİKTARLARI Trabzon : 0.0 mm Giresun : 0.0 mm Rize : 0.0 mm Artvin : 0.0 mm Gümüşhane : 0.0 mm

METARLTCG 031050Z 09004KT CAVOK 12/05 Q1016 NOSIG RMK RWY29 10004KT : 

METARLTCG 031050Z 09004KT CAVOK 12/05 Q1016 NOSIG RMK RWY29 10004KT TAF LTCG 031040Z 0312/0412 VRB02KT CAVOK PROB40 0315/0319 4000 FU BECMG 0323/0402 BKN100

METEOROLOJİK İHBAR : 

METEOROLOJİK İHBAR MEYDANIMIZDA BUGÜN İÇİN METEOROLOJİK İHBAR BULUNMAMAKTADIR.

authorStream Live Help